Terminal Aerodrome Forecast
Issued by NWS Detroit/Pontiac, MI

Current Version | Previous Version | Text Only | Print | Product List | Glossary On
Versions: 1 2 3 4 5 6 7 8 9 10 11 12 13 14 15 16 17 18 19 20 21 22 23 24 25
000
FTUS43 KDTX 281720
TAFDTW
TAF
KDTW 281720Z 2818/2924 08009KT P6SM SCT060 BKN120
     FM282300 02008KT P6SM SCT060 OVC150
     FM290100 01005KT P6SM FEW060
     FM291400 04009KT P6SM SCT120 BKN200
     FM291800 07010KT P6SM BKN050=

USA.gov is the U.S. government's official web portal to all federal, state and local government web resources and services.